»·PEaware :: ASA894 PHKO-KPDX

ASA894 :: PHKO-KPDX

FLIGHT INFORMATION

Flight Status: Arrived
Operator:
Alaska Airlines
More flights by this operator :: More flights under this callsign
Pilot: Jone M. (10385)
Aircraft: BOEING 737-800
(B738)
More flights by this aircraft type
Origin: PHKO Kona Intl At Keahole
United States
Destination: KPDX Portland Intl
United States
More flights between these airports :: More routes between these airports
Route: +AMERY4 ROWIN ONOVY R576 DENNS DRAYK 26N150W 35N140W/N0443F350 41N130W CITYY TMBRS2
File this flight plan on PilotEdge
Remarks: PBN / A1B1C1D1S1S2 DOF / 181231 REG / N549AS OPR / ASA PER / C RMK / TCAS
Altitude:
(Current/Filed)
33,000ft
Speed:
(Current/Filed)
461kts
Departed: 24-Feb-19 09:45 AM
Arrived: 24-Feb-19 02:51 PM
Distance/Time
Traveled:
2265nm/5:06
Distance/Time
To Go:
Arrived

Flight Plot

Page will automatically refresh every two minutes.

Flight plan parsing failed; only flown route is shown


Map Options




Map Legend


Flown Route
Filed Route
Departure Airport
Arrival Airport
Navaid (VOR, NDB)
Fix

Horizontal Profiles

Position Reports

Time Latitude Longitude Heading Altitude Ground
Speed
24-Feb-19 09:23 19.737245 -156.042191 56 55ft 0kts
24-Feb-19 09:23 19.737245 -156.042191 56 55ft 0kts
24-Feb-19 09:25 19.737245 -156.042191 56 55ft 0kts
24-Feb-19 09:26 19.737245 -156.042191 56 55ft 0kts
24-Feb-19 09:26 19.737245 -156.042191 56 55ft 0kts
24-Feb-19 09:27 19.737245 -156.042191 56 55ft 0kts
24-Feb-19 09:29 19.737245 -156.042191 56 55ft 0kts
24-Feb-19 09:29 19.737245 -156.042191 56 55ft 0kts
24-Feb-19 09:30 19.737245 -156.042191 56 55ft 0kts
24-Feb-19 09:31 19.737244 -156.042191 56 55ft 0kts
24-Feb-19 09:32 19.737244 -156.042191 56 55ft 0kts
24-Feb-19 09:33 19.737244 -156.042191 56 55ft 0kts
24-Feb-19 09:34 19.737244 -156.042191 56 55ft 0kts
24-Feb-19 09:35 19.737244 -156.042191 56 55ft 0kts
24-Feb-19 09:36 19.737244 -156.042191 56 55ft 0kts
24-Feb-19 09:37 19.736798 -156.042228 308 55ft 2kts
24-Feb-19 09:38 19.736727 -156.042023 268 55ft 0kts
24-Feb-19 09:39 19.736727 -156.042023 268 55ft 0kts
24-Feb-19 09:40 19.736727 -156.042023 268 55ft 0kts
24-Feb-19 09:41 19.736727 -156.042023 268 55ft 0kts
24-Feb-19 09:42 19.736727 -156.042023 268 55ft 0kts
24-Feb-19 09:43 19.736779 -156.043112 277 51ft 6kts
24-Feb-19 09:44 19.740753 -156.042964 7 54ft 41kts
24-Feb-19 09:45 19.751958 -156.041901 8 63ft 43kts
24-Feb-19 09:46 19.754741 -156.041969 270 65ft 14kts
24-Feb-19 09:47 19.746846 -156.045103 184 53ft 108kts
24-Feb-19 09:48 19.704288 -156.053433 221 1027ft 185kts
24-Feb-19 09:49 19.725757 -156.099023 326 1783ft 245kts
24-Feb-19 09:50 19.784678 -156.143385 324 3987ft 275kts
24-Feb-19 09:51 19.853238 -156.147630 37 6390ft 284kts
24-Feb-19 09:52 19.916277 -156.096371 37 8714ft 295kts
24-Feb-19 09:53 19.982657 -156.041948 36 10490ft 324kts
24-Feb-19 09:54 20.055179 -155.982418 35 12686ft 339kts
24-Feb-19 09:55 20.131152 -155.919978 35 14952ft 353kts
24-Feb-19 09:56 20.210330 -155.854824 34 17128ft 367kts
24-Feb-19 09:57 20.292488 -155.787128 33 19128ft 380kts
24-Feb-19 09:58 20.377360 -155.717099 33 20987ft 392kts
24-Feb-19 09:59 20.464951 -155.644720 32 22695ft 404kts
24-Feb-19 10:00 20.555034 -155.570168 32 24242ft 417kts
24-Feb-19 10:01 20.647424 -155.493577 32 25716ft 427kts
24-Feb-19 10:02 20.742156 -155.414918 31 27052ft 438kts
24-Feb-19 10:03 20.839460 -155.333985 31 28288ft 448kts
24-Feb-19 10:04 20.938510 -155.251497 31 29410ft 457kts
24-Feb-19 10:05 21.039421 -155.167318 31 30381ft 467kts
24-Feb-19 10:06 21.140583 -155.082756 31 31401ft 473kts
24-Feb-19 10:07 21.243901 -154.996177 30 32555ft 474kts
24-Feb-19 10:08 21.348648 -154.908329 30 33060ft 489kts
24-Feb-19 10:09 21.456865 -154.817338 30 33057ft 494kts
24-Feb-19 10:10 21.564965 -154.726207 30 33060ft 494kts
24-Feb-19 10:11 21.673008 -154.634933 30 33061ft 494kts
24-Feb-19 10:12 21.780689 -154.543783 30 33063ft 494kts
24-Feb-19 10:13 21.889115 -154.451821 30 33065ft 494kts
24-Feb-19 10:14 21.996770 -154.360337 30 33067ft 494kts
24-Feb-19 10:15 22.104126 -154.268974 30 33068ft 490kts
24-Feb-19 10:16 22.211012 -154.177884 30 33069ft 491kts
24-Feb-19 10:17 22.316060 -154.084632 45 33081ft 504kts
24-Feb-19 10:18 22.368976 -153.943553 84 33084ft 523kts
24-Feb-19 10:19 22.400303 -153.794873 56 33087ft 513kts
24-Feb-19 10:20 22.472968 -153.665645 55 33079ft 512kts
24-Feb-19 10:21 22.540626 -153.533490 56 33081ft 512kts
24-Feb-19 10:22 22.607202 -153.402897 56 33084ft 512kts
24-Feb-19 10:23 22.672998 -153.273559 56 33067ft 512kts
24-Feb-19 10:24 22.742121 -153.137379 56 33070ft 512kts
24-Feb-19 10:25 22.803818 -153.015478 56 33072ft 516kts
24-Feb-19 10:26 22.876110 -152.872210 56 33075ft 522kts
24-Feb-19 10:27 22.944638 -152.735921 56 33078ft 518kts
24-Feb-19 10:28 23.014032 -152.601756 49 33083ft 510kts
24-Feb-19 10:29 23.114352 -152.500799 28 33083ft 490kts
24-Feb-19 10:30 23.220981 -152.411744 30 33083ft 492kts
24-Feb-19 10:31 23.327770 -152.321724 30 33068ft 492kts
24-Feb-19 10:32 23.433829 -152.232198 30 33068ft 492kts
24-Feb-19 10:33 23.537903 -152.144124 30 33070ft 492kts
24-Feb-19 10:34 23.640192 -152.057350 30 33072ft 492kts
24-Feb-19 10:35 23.750363 -151.963658 30 33073ft 492kts
24-Feb-19 10:36 23.857717 -151.872133 30 33075ft 492kts
24-Feb-19 10:37 23.965489 -151.780025 30 33077ft 492kts
24-Feb-19 10:38 24.071917 -151.688845 30 33078ft 492kts
24-Feb-19 10:39 24.175096 -151.600235 30 33080ft 492kts
24-Feb-19 10:40 24.284985 -151.505640 30 33081ft 492kts
24-Feb-19 10:41 24.392505 -151.412857 30 33083ft 492kts
24-Feb-19 10:42 24.497731 -151.321855 30 33068ft 492kts
24-Feb-19 10:43 24.603700 -151.230067 30 33068ft 492kts
24-Feb-19 10:44 24.711905 -151.136110 30 33070ft 494kts
24-Feb-19 10:45 24.819775 -151.042215 30 33072ft 498kts
24-Feb-19 10:46 24.929131 -150.946788 30 33075ft 501kts
24-Feb-19 10:47 25.038742 -150.850849 31 33076ft 497kts
24-Feb-19 10:48 25.146408 -150.756375 31 33076ft 493kts
24-Feb-19 10:49 25.253315 -150.662377 31 33078ft 494kts
24-Feb-19 10:50 25.361393 -150.567119 31 33080ft 494kts
24-Feb-19 10:51 25.469356 -150.471733 31 33082ft 494kts
24-Feb-19 10:52 25.576970 -150.376428 31 33083ft 494kts
24-Feb-19 10:53 25.684647 -150.280911 31 33068ft 494kts
24-Feb-19 10:54 25.792533 -150.185022 31 33070ft 494kts
24-Feb-19 10:55 25.900229 -150.089065 31 33071ft 494kts
24-Feb-19 10:56 26.007968 -149.992620 33 33073ft 495kts
24-Feb-19 10:57 26.112320 -149.891530 34 33074ft 496kts
24-Feb-19 10:58 26.216351 -149.792562 33 33076ft 495kts
24-Feb-19 10:59 26.322515 -149.692039 33 33078ft 495kts
24-Feb-19 11:00 26.428223 -149.591548 33 33080ft 496kts
24-Feb-19 11:01 26.533797 -149.490755 33 33090ft 496kts
24-Feb-19 11:02 26.639442 -149.389461 33 33092ft 496kts
24-Feb-19 11:03 26.744279 -149.288567 34 33077ft 496kts
24-Feb-19 11:04 26.849419 -149.186928 34 33079ft 496kts
24-Feb-19 11:05 26.954102 -149.085267 34 33081ft 493kts
24-Feb-19 11:06 27.057765 -148.984197 35 33082ft 489kts
24-Feb-19 11:07 27.161294 -148.882864 35 33082ft 494kts
24-Feb-19 11:08 27.265581 -148.780339 35 33084ft 497kts
24-Feb-19 11:09 27.370138 -148.677119 35 33085ft 497kts
24-Feb-19 11:10 27.474768 -148.573411 35 33089ft 497kts
24-Feb-19 11:11 27.579247 -148.469424 35 33089ft 497kts
24-Feb-19 11:12 27.680689 -148.367949 36 33092ft 497kts
24-Feb-19 11:13 27.777887 -148.265908 39 33079ft 500kts
24-Feb-19 11:15 27.873392 -148.153352 43 33081ft 503kts
24-Feb-19 11:16 27.960175 -148.033705 49 33083ft 505kts
24-Feb-19 11:17 28.038297 -147.904446 53 33085ft 507kts
24-Feb-19 11:18 28.124947 -147.801083 36 33083ft 497kts
24-Feb-19 11:19 28.232231 -147.691149 36 33086ft 498kts
24-Feb-19 11:20 28.334682 -147.585884 36 33088ft 497kts
24-Feb-19 11:21 28.437042 -147.480407 36 33090ft 498kts
24-Feb-19 11:22 28.539357 -147.374666 36 33091ft 497kts
24-Feb-19 11:23 28.641410 -147.268999 37 33078ft 498kts
24-Feb-19 11:24 28.743394 -147.163156 37 33080ft 498kts
24-Feb-19 11:25 28.845841 -147.056515 37 33082ft 498kts
24-Feb-19 11:26 28.948296 -146.949562 37 33084ft 500kts
24-Feb-19 11:27 29.050386 -146.842654 38 33086ft 497kts
24-Feb-19 11:28 29.151402 -146.736545 39 33083ft 491kts
24-Feb-19 11:29 29.251629 -146.630982 39 33084ft 492kts
24-Feb-19 11:30 29.352239 -146.524698 39 33086ft 492kts
24-Feb-19 11:31 29.452818 -146.418135 39 33088ft 493kts
24-Feb-19 11:32 29.553082 -146.311622 39 33079ft 492kts
24-Feb-19 11:32 29.636045 -146.223351 39 33080ft 492kts
24-Feb-19 11:34 29.753292 -146.098225 40 33081ft 492kts
24-Feb-19 11:35 29.853692 -145.990728 39 33083ft 493kts
24-Feb-19 11:35 29.937130 -145.901142 40 33085ft 493kts
24-Feb-19 11:36 30.036719 -145.793915 39 33086ft 493kts
24-Feb-19 11:38 30.150397 -145.671120 40 33084ft 493kts
24-Feb-19 11:38 30.232561 -145.582097 39 33085ft 492kts
24-Feb-19 11:39 30.330414 -145.475785 40 33087ft 493kts
24-Feb-19 11:40 30.429645 -145.367644 39 33088ft 492kts
24-Feb-19 11:41 30.525327 -145.263165 40 33079ft 493kts
24-Feb-19 11:42 30.623685 -145.155487 40 33081ft 492kts
24-Feb-19 11:43 30.721362 -145.048224 40 33082ft 492kts
24-Feb-19 11:44 30.820377 -144.939147 40 33082ft 491kts
24-Feb-19 11:45 30.917941 -144.831322 40 33084ft 491kts
24-Feb-19 11:46 31.017389 -144.721098 40 33088ft 493kts
24-Feb-19 11:47 31.114988 -144.612574 41 33084ft 492kts
24-Feb-19 11:48 31.214211 -144.501864 41 33085ft 492kts
24-Feb-19 11:49 31.313856 -144.390340 41 33087ft 493kts
24-Feb-19 11:50 31.412846 -144.279283 41 33079ft 494kts
24-Feb-19 11:51 31.512055 -144.167702 41 33078ft 494kts
24-Feb-19 11:52 31.611231 -144.055782 41 33081ft 493kts
24-Feb-19 11:53 31.710114 -143.943823 41 33082ft 492kts
24-Feb-19 11:54 31.809338 -143.831111 41 33085ft 493kts
24-Feb-19 11:55 31.908272 -143.718342 41 33086ft 493kts
24-Feb-19 11:56 32.007313 -143.605074 41 33087ft 493kts
24-Feb-19 11:57 32.106133 -143.491709 41 33087ft 494kts
24-Feb-19 11:58 32.204262 -143.378718 41 33084ft 493kts
24-Feb-19 11:59 32.302517 -143.265354 42 33078ft 493kts
24-Feb-19 12:00 32.400612 -143.151867 42 33077ft 493kts
24-Feb-19 12:01 32.498991 -143.037648 42 33080ft 492kts
24-Feb-19 12:02 32.595794 -142.924878 41 33089ft 488kts
24-Feb-19 12:03 32.692036 -142.812361 41 33091ft 485kts
24-Feb-19 12:04 32.787149 -142.700822 41 33090ft 483kts
24-Feb-19 12:05 32.879944 -142.591656 41 33095ft 484kts
24-Feb-19 12:06 32.974471 -142.480044 41 33098ft 484kts
24-Feb-19 12:07 33.070927 -142.365855 41 33102ft 491kts
24-Feb-19 12:08 33.167661 -142.251083 41 33087ft 496kts
24-Feb-19 12:09 33.262349 -142.138339 41 33085ft 494kts
24-Feb-19 12:10 33.358415 -142.023544 41 33096ft 494kts
24-Feb-19 12:11 33.454994 -141.907749 41 33086ft 495kts
24-Feb-19 12:12 33.551422 -141.791721 41 33145ft 494kts
24-Feb-19 12:13 33.648438 -141.674564 41 33160ft 493kts
24-Feb-19 12:14 33.744945 -141.557483 41 33160ft 492kts
24-Feb-19 12:15 33.841293 -141.440303 41 33171ft 493kts
24-Feb-19 12:16 33.937254 -141.323166 42 33167ft 494kts
24-Feb-19 12:17 34.032783 -141.206164 42 33163ft 493kts
24-Feb-19 12:18 34.128409 -141.088831 41 33157ft 493kts
24-Feb-19 12:19 34.223883 -140.971257 41 33163ft 488kts
24-Feb-19 12:20 34.310336 -140.864375 40 33167ft 480kts
24-Feb-19 12:21 34.396336 -140.757753 40 33167ft 482kts
24-Feb-19 12:22 34.499267 -140.629726 40 33167ft 484kts
24-Feb-19 12:23 34.592280 -140.513576 40 33175ft 482kts
24-Feb-19 12:24 34.685600 -140.396682 40 33169ft 481kts
24-Feb-19 12:25 34.777470 -140.281241 41 33162ft 484kts
24-Feb-19 12:26 34.869048 -140.165808 41 33171ft 484kts
24-Feb-19 12:27 34.962044 -140.048165 41 33161ft 483kts
24-Feb-19 12:28 35.050659 -139.928748 45 33165ft 487kts
24-Feb-19 12:29 35.137142 -139.804666 44 33166ft 486kts
24-Feb-19 12:30 35.224635 -139.680978 44 33167ft 486kts
24-Feb-19 12:31 35.312856 -139.556225 44 33169ft 486kts
24-Feb-19 12:32 35.401168 -139.430715 44 33170ft 487kts
24-Feb-19 12:33 35.488926 -139.305350 45 33162ft 486kts
24-Feb-19 12:34 35.574972 -139.181816 45 33162ft 487kts
24-Feb-19 12:35 35.661201 -139.057301 45 33164ft 487kts
24-Feb-19 12:36 35.748405 -138.930695 45 33165ft 486kts
24-Feb-19 12:37 35.836100 -138.802708 45 33166ft 487kts
24-Feb-19 12:38 35.923415 -138.674607 45 33171ft 487kts
24-Feb-19 12:39 36.009420 -138.547738 45 33168ft 486kts
24-Feb-19 12:40 36.095839 -138.419650 45 33169ft 485kts
24-Feb-19 12:41 36.179715 -138.294690 46 33160ft 486kts
24-Feb-19 12:42 36.264521 -138.167764 46 33162ft 487kts
24-Feb-19 12:43 36.349308 -138.040132 46 33162ft 487kts
24-Feb-19 12:44 36.435011 -137.910459 46 33164ft 486kts
24-Feb-19 12:45 36.520496 -137.780460 46 33165ft 487kts
24-Feb-19 12:46 36.606031 -137.649697 46 33169ft 487kts
24-Feb-19 12:47 36.691182 -137.518872 46 33166ft 487kts
24-Feb-19 12:48 36.776222 -137.387544 46 33173ft 486kts
24-Feb-19 12:49 36.860909 -137.256227 47 33380ft 486kts
24-Feb-19 12:50 36.945461 -137.124424 47 33758ft 486kts
24-Feb-19 12:51 37.028448 -136.994391 48 34146ft 486kts
24-Feb-19 12:52 37.111823 -136.863070 49 34552ft 486kts
24-Feb-19 12:53 37.193847 -136.733243 50 34940ft 486kts
24-Feb-19 12:54 37.276677 -136.601508 50 35166ft 486kts
24-Feb-19 12:55 37.359263 -136.469527 50 35167ft 486kts
24-Feb-19 12:56 37.441256 -136.337862 51 35165ft 485kts
24-Feb-19 12:57 37.521891 -136.207935 51 35162ft 485kts
24-Feb-19 12:58 37.603592 -136.075588 51 35164ft 486kts
24-Feb-19 12:59 37.685313 -135.942533 51 35166ft 485kts
24-Feb-19 13:00 37.768126 -135.807040 51 35167ft 485kts
24-Feb-19 13:01 37.850820 -135.671089 51 35168ft 485kts
24-Feb-19 13:02 37.933041 -135.535238 48 35165ft 485kts
24-Feb-19 13:03 38.015625 -135.398029 48 35144ft 491kts
24-Feb-19 13:04 38.095538 -135.264957 49 35135ft 492kts
24-Feb-19 13:05 38.177827 -135.127328 49 35134ft 492kts
24-Feb-19 13:06 38.257661 -134.993130 50 35136ft 493kts
24-Feb-19 13:07 38.337628 -134.858059 51 35137ft 494kts
24-Feb-19 13:08 38.419131 -134.719737 51 35139ft 495kts
24-Feb-19 13:09 38.499402 -134.582874 51 35141ft 494kts
24-Feb-19 13:10 38.580874 -134.443329 51 35143ft 494kts
24-Feb-19 13:11 38.662499 -134.302935 51 35135ft 494kts
24-Feb-19 13:12 38.742362 -134.165111 51 35136ft 495kts
24-Feb-19 13:13 38.823497 -134.024283 51 35138ft 494kts
24-Feb-19 13:14 38.904011 -133.883779 52 35140ft 493kts
24-Feb-19 13:15 38.983515 -133.744365 53 35142ft 483kts
24-Feb-19 13:16 39.061350 -133.607273 54 35141ft 473kts
24-Feb-19 13:17 39.138707 -133.470446 54 35136ft 474kts
24-Feb-19 13:18 39.214814 -133.335229 55 35134ft 475kts
24-Feb-19 13:19 39.291414 -133.198727 55 35135ft 475kts
24-Feb-19 13:20 39.369187 -133.059463 54 35134ft 485kts
24-Feb-19 13:21 39.446292 -132.920775 53 35135ft 494kts
24-Feb-19 13:22 39.526072 -132.776599 54 35137ft 493kts
24-Feb-19 13:24 39.605953 -132.631614 54 35142ft 493kts
24-Feb-19 13:25 39.685030 -132.487484 54 35143ft 493kts
24-Feb-19 13:26 39.763101 -132.344574 54 35143ft 492kts
24-Feb-19 13:27 39.841053 -132.201477 54 35137ft 494kts
24-Feb-19 13:28 39.918721 -132.058176 54 35140ft 493kts
24-Feb-19 13:29 39.995831 -131.915271 54 35142ft 493kts
24-Feb-19 13:30 40.073724 -131.770310 54 35145ft 493kts
24-Feb-19 13:31 40.147696 -131.632085 54 35138ft 492kts
24-Feb-19 13:32 40.225839 -131.485468 54 35139ft 493kts
24-Feb-19 13:33 40.303994 -131.338199 55 35138ft 493kts
24-Feb-19 13:34 40.381195 -131.192331 55 35135ft 493kts
24-Feb-19 13:35 40.459042 -131.044570 55 35136ft 494kts
24-Feb-19 13:36 40.537083 -130.895704 54 35119ft 497kts
24-Feb-19 13:37 40.615255 -130.745995 54 35090ft 501kts
24-Feb-19 13:38 40.693001 -130.596462 54 35073ft 500kts
24-Feb-19 13:39 40.769262 -130.449183 54 35072ft 501kts
24-Feb-19 13:40 40.844405 -130.303527 54 35054ft 500kts
24-Feb-19 13:41 40.919302 -130.158010 54 35059ft 500kts
24-Feb-19 13:42 40.996904 -130.006507 54 35057ft 501kts
24-Feb-19 13:42 41.061796 -129.885200 51 35058ft 502kts
24-Feb-19 13:43 41.138247 -129.744105 51 35056ft 502kts
24-Feb-19 13:45 41.230253 -129.574164 51 35058ft 502kts
24-Feb-19 13:46 41.311129 -129.424023 51 35060ft 501kts
24-Feb-19 13:46 41.377403 -129.300396 51 35051ft 501kts
24-Feb-19 13:47 41.456704 -129.151770 51 35052ft 501kts
24-Feb-19 13:48 41.536960 -129.000290 51 35055ft 505kts
24-Feb-19 13:49 41.618148 -128.846052 51 35057ft 508kts
24-Feb-19 13:50 41.699452 -128.690598 51 35059ft 508kts
24-Feb-19 13:51 41.780517 -128.534647 51 35062ft 508kts
24-Feb-19 13:52 41.861304 -128.378264 51 35064ft 508kts
24-Feb-19 13:53 41.937233 -128.230649 51 35052ft 508kts
24-Feb-19 13:54 42.018268 -128.072090 51 35055ft 508kts
24-Feb-19 13:55 42.098399 -127.914224 51 35057ft 508kts
24-Feb-19 13:56 42.177622 -127.757158 51 35056ft 509kts
24-Feb-19 13:57 42.257521 -127.597770 51 35059ft 508kts
24-Feb-19 13:58 42.336224 -127.439821 52 35061ft 508kts
24-Feb-19 13:59 42.414492 -127.281933 52 35051ft 509kts
24-Feb-19 14:00 42.493216 -127.122438 52 34187ft 535kts
24-Feb-19 14:01 42.571915 -126.961619 51 35051ft 508kts
24-Feb-19 14:02 42.642099 -126.817602 51 35058ft 512kts
24-Feb-19 14:03 42.720380 -126.655929 51 35061ft 512kts
24-Feb-19 14:04 42.798442 -126.493718 51 35053ft 511kts
24-Feb-19 14:05 42.875817 -126.331981 52 35054ft 511kts
24-Feb-19 14:06 42.953641 -126.168831 51 35053ft 519kts
24-Feb-19 14:07 43.033097 -126.001172 50 35055ft 528kts
24-Feb-19 14:08 43.113240 -125.830886 51 35058ft 529kts
24-Feb-19 14:09 43.192113 -125.662193 51 35061ft 530kts
24-Feb-19 14:10 43.271604 -125.491085 51 35064ft 530kts
24-Feb-19 14:11 43.350139 -125.320928 51 35045ft 522kts
24-Feb-19 14:12 43.426266 -125.155617 51 35051ft 524kts
24-Feb-19 14:13 43.503923 -124.985860 51 35055ft 523kts
24-Feb-19 14:14 43.579279 -124.820000 50 35058ft 524kts
24-Feb-19 14:15 43.656230 -124.649539 51 35062ft 525kts
24-Feb-19 14:16 43.730854 -124.483218 51 35065ft 525kts
24-Feb-19 14:17 43.803471 -124.320493 51 35050ft 525kts
24-Feb-19 14:18 43.870693 -124.169550 52 35051ft 526kts
24-Feb-19 14:19 43.945133 -124.001295 51 34551ft 531kts
24-Feb-19 14:20 44.023460 -123.822905 52 31895ft 518kts
24-Feb-19 14:21 44.096045 -123.656551 52 29657ft 498kts
24-Feb-19 14:22 44.162307 -123.503907 52 27579ft 480kts
24-Feb-19 14:23 44.226187 -123.355980 53 25583ft 463kts
24-Feb-19 14:24 44.286141 -123.216902 54 23616ft 447kts
24-Feb-19 14:25 44.350626 -123.066639 54 21526ft 430kts
24-Feb-19 14:26 44.413370 -122.928015 41 19581ft 406kts
24-Feb-19 14:27 44.501121 -122.845926 13 17647ft 370kts
24-Feb-19 14:28 44.594885 -122.796441 13 15736ft 359kts
24-Feb-19 14:29 44.686496 -122.748260 13 14213ft 347kts
24-Feb-19 14:30 44.776111 -122.701084 14 13735ft 347kts
24-Feb-19 14:31 44.867506 -122.680584 356 13269ft 332kts
24-Feb-19 14:32 44.956257 -122.671814 356 13190ft 308kts
24-Feb-19 14:33 45.040936 -122.663430 359 12370ft 310kts
24-Feb-19 14:34 45.125038 -122.654995 2 10808ft 299kts
24-Feb-19 14:35 45.204305 -122.646984 2 9378ft 290kts
24-Feb-19 14:36 45.279972 -122.658087 336 8223ft 269kts
24-Feb-19 14:37 45.348944 -122.696379 337 8001ft 270kts
24-Feb-19 14:38 45.416925 -122.733915 338 7053ft 267kts
24-Feb-19 14:39 45.482788 -122.770304 338 5891ft 255kts
24-Feb-19 14:40 45.544362 -122.804370 339 4978ft 218kts
24-Feb-19 14:41 45.592203 -122.850961 302 4987ft 220kts
24-Feb-19 14:42 45.622432 -122.923814 302 4981ft 220kts
24-Feb-19 14:43 45.666895 -122.965667 11 4331ft 196kts
24-Feb-19 14:44 45.704255 -122.917932 89 3909ft 198kts
24-Feb-19 14:45 45.682951 -122.848087 117 2986ft 194kts
24-Feb-19 14:46 45.656926 -122.780718 117 2561ft 192kts
24-Feb-19 14:47 45.631853 -122.716041 117 1557ft 172kts
24-Feb-19 14:48 45.612114 -122.666860 118 750ft 132kts
24-Feb-19 14:49 45.595101 -122.621352 118 87ft 130kts
24-Feb-19 14:50 45.587862 -122.600718 84 37ft 8kts
24-Feb-19 14:51 45.587910 -122.600026 82 37ft 2kts
24-Feb-19 14:52 45.587189 -122.595636 119 36ft 16kts
24-Feb-19 14:53 45.587369 -122.593914 11 37ft 0kts
24-Feb-19 14:54 45.587380 -122.593911 11 37ft 0kts
24-Feb-19 14:55 45.587380 -122.593911 11 37ft 0kts
24-Feb-19 14:56 45.587380 -122.593911 11 37ft 0kts
24-Feb-19 14:57 45.587380 -122.593911 11 37ft 0kts
24-Feb-19 14:58 45.586719 -122.581566 299 32ft 0kts
24-Feb-19 14:59 45.586719 -122.581566 299 32ft 0kts
24-Feb-19 15:00 45.586719 -122.581566 299 32ft 0kts
24-Feb-19 15:01 45.586719 -122.581566 299 32ft 0kts
24-Feb-19 15:02 45.586719 -122.581566 299 32ft 0kts

Navigation Log

Ident Type
Flight plan parsing failed, navigation log unavailable